sensor_id;sensor_type;location;lat;lon;timestamp;pressure;altitude;pressure_sealevel;temperature;humidity
70009;BME280;59542;37.950;-122.338;2023-10-31T00:01:53;101708.44;;;22.27;19.47
70009;BME280;59542;37.950;-122.338;2023-10-31T00:04:21;101705.03;;;22.14;19.41
70009;BME280;59542;37.950;-122.338;2023-10-31T00:06:47;101708.75;;;22.03;19.94
70009;BME280;59542;37.950;-122.338;2023-10-31T00:09:14;101710.13;;;22.01;20.37
70009;BME280;59542;37.950;-122.338;2023-10-31T00:11:41;101709.00;;;21.97;20.50
70009;BME280;59542;37.950;-122.338;2023-10-31T00:14:10;101709.84;;;22.02;21.32
70009;BME280;59542;37.950;-122.338;2023-10-31T00:16:36;101707.13;;;21.70;20.99
70009;BME280;59542;37.950;-122.338;2023-10-31T00:19:02;101711.66;;;21.59;21.17
70009;BME280;59542;37.950;-122.338;2023-10-31T00:21:28;101706.47;;;21.58;21.22
70009;BME280;59542;37.950;-122.338;2023-10-31T00:23:55;101703.44;;;21.86;20.96
70009;BME280;59542;37.950;-122.338;2023-10-31T00:26:21;101705.84;;;21.78;20.34
70009;BME280;59542;37.950;-122.338;2023-10-31T00:28:47;101696.72;;;21.35;20.74
70009;BME280;59542;37.950;-122.338;2023-10-31T00:31:13;101691.97;;;21.25;20.40
70009;BME280;59542;37.950;-122.338;2023-10-31T00:33:40;101684.56;;;21.21;20.41
70009;BME280;59542;37.950;-122.338;2023-10-31T00:36:07;101685.78;;;21.30;19.98
70009;BME280;59542;37.950;-122.338;2023-10-31T00:38:33;101686.13;;;21.12;20.71
70009;BME280;59542;37.950;-122.338;2023-10-31T00:41:00;101684.78;;;20.92;20.75
70009;BME280;59542;37.950;-122.338;2023-10-31T00:43:26;101679.75;;;21.01;20.84
70009;BME280;59542;37.950;-122.338;2023-10-31T00:45:52;101683.22;;;20.74;20.62
70009;BME280;59542;37.950;-122.338;2023-10-31T00:48:19;101682.00;;;20.65;21.50
70009;BME280;59542;37.950;-122.338;2023-10-31T00:50:46;101678.06;;;20.34;22.25
70009;BME280;59542;37.950;-122.338;2023-10-31T00:53:12;101676.72;;;20.37;21.94
70009;BME280;59542;37.950;-122.338;2023-10-31T00:55:40;101677.31;;;20.39;21.56
70009;BME280;59542;37.950;-122.338;2023-10-31T00:58:06;101677.56;;;20.20;22.20
70009;BME280;59542;37.950;-122.338;2023-10-31T01:00:33;101682.94;;;20.15;22.75
70009;BME280;59542;37.950;-122.338;2023-10-31T01:03:00;101686.72;;;20.14;22.51
70009;BME280;59542;37.950;-122.338;2023-10-31T01:05:26;101685.03;;;19.91;22.66
70009;BME280;59542;37.950;-122.338;2023-10-31T01:07:54;101684.00;;;20.14;22.94
70009;BME280;59542;37.950;-122.338;2023-10-31T01:10:21;101686.28;;;19.84;23.60
70009;BME280;59542;37.950;-122.338;2023-10-31T01:12:47;101684.19;;;19.74;23.91
70009;BME280;59542;37.950;-122.338;2023-10-31T01:15:13;101685.50;;;19.55;24.27
70009;BME280;59542;37.950;-122.338;2023-10-31T01:17:40;101681.91;;;19.37;24.70
70009;BME280;59542;37.950;-122.338;2023-10-31T01:20:07;101683.88;;;19.42;25.01
70009;BME280;59542;37.950;-122.338;2023-10-31T01:22:33;101684.56;;;19.49;24.72
70009;BME280;59542;37.950;-122.338;2023-10-31T01:25:00;101686.78;;;19.52;25.03
70009;BME280;59542;37.950;-122.338;2023-10-31T01:27:27;101690.06;;;19.54;25.61
70009;BME280;59542;37.950;-122.338;2023-10-31T01:29:53;101689.50;;;19.52;25.21
70009;BME280;59542;37.950;-122.338;2023-10-31T01:32:19;101695.63;;;19.31;24.73
70009;BME280;59542;37.950;-122.338;2023-10-31T01:34:45;101696.50;;;19.19;25.14
70009;BME280;59542;37.950;-122.338;2023-10-31T01:37:12;101693.03;;;19.07;25.06
70009;BME280;59542;37.950;-122.338;2023-10-31T01:39:40;101692.72;;;19.20;25.44
70009;BME280;59542;37.950;-122.338;2023-10-31T01:42:07;101694.88;;;19.18;25.69
70009;BME280;59542;37.950;-122.338;2023-10-31T01:44:33;101695.59;;;19.14;26.31
70009;BME280;59542;37.950;-122.338;2023-10-31T01:46:59;101699.78;;;19.05;26.68
70009;BME280;59542;37.950;-122.338;2023-10-31T01:49:26;101705.31;;;18.98;26.92
70009;BME280;59542;37.950;-122.338;2023-10-31T01:51:52;101700.75;;;18.87;26.88
70009;BME280;59542;37.950;-122.338;2023-10-31T01:54:18;101705.56;;;18.96;27.24
70009;BME280;59542;37.950;-122.338;2023-10-31T01:56:45;101708.81;;;18.70;27.63
70009;BME280;59542;37.950;-122.338;2023-10-31T01:59:14;101709.38;;;18.84;27.54
70009;BME280;59542;37.950;-122.338;2023-10-31T02:01:41;101711.06;;;18.50;28.03
70009;BME280;59542;37.950;-122.338;2023-10-31T02:04:07;101711.91;;;18.27;28.49
70009;BME280;59542;37.950;-122.338;2023-10-31T02:06:34;101710.22;;;18.14;28.56
70009;BME280;59542;37.950;-122.338;2023-10-31T02:09:00;101716.00;;;18.06;29.23
70009;BME280;59542;37.950;-122.338;2023-10-31T02:11:26;101713.53;;;18.04;29.85
70009;BME280;59542;37.950;-122.338;2023-10-31T02:13:53;101716.09;;;17.87;30.24
70009;BME280;59542;37.950;-122.338;2023-10-31T02:16:19;101714.66;;;17.73;30.17
70009;BME280;59542;37.950;-122.338;2023-10-31T02:18:45;101726.16;;;17.68;30.15
70009;BME280;59542;37.950;-122.338;2023-10-31T02:21:12;101729.78;;;17.62;30.21
70009;BME280;59542;37.950;-122.338;2023-10-31T02:23:38;101722.91;;;17.48;30.76
70009;BME280;59542;37.950;-122.338;2023-10-31T02:26:05;101723.09;;;17.35;31.14
70009;BME280;59542;37.950;-122.338;2023-10-31T02:28:31;101722.91;;;17.18;31.40
70009;BME280;59542;37.950;-122.338;2023-10-31T02:30:57;101730.44;;;17.16;32.03
70009;BME280;59542;37.950;-122.338;2023-10-31T02:33:24;101733.38;;;16.96;32.17
70009;BME280;59542;37.950;-122.338;2023-10-31T02:35:50;101734.28;;;16.90;32.83
70009;BME280;59542;37.950;-122.338;2023-10-31T02:38:16;101740.91;;;16.94;33.66
70009;BME280;59542;37.950;-122.338;2023-10-31T02:40:42;101744.38;;;16.83;33.47
70009;BME280;59542;37.950;-122.338;2023-10-31T02:43:09;101740.31;;;16.74;34.11
70009;BME280;59542;37.950;-122.338;2023-10-31T02:45:35;101752.25;;;16.41;34.81
70009;BME280;59542;37.950;-122.338;2023-10-31T02:48:01;101747.56;;;16.30;35.15
70009;BME280;59542;37.950;-122.338;2023-10-31T02:50:27;101751.41;;;16.16;35.93
70009;BME280;59542;37.950;-122.338;2023-10-31T02:52:54;101746.72;;;15.79;36.77
70009;BME280;59542;37.950;-122.338;2023-10-31T02:55:20;101749.72;;;15.65;37.20
70009;BME280;59542;37.950;-122.338;2023-10-31T02:57:46;101752.25;;;15.53;37.71
70009;BME280;59542;37.950;-122.338;2023-10-31T03:00:13;101750.31;;;15.73;37.70
70009;BME280;59542;37.950;-122.338;2023-10-31T03:02:39;101747.00;;;15.33;38.02
70009;BME280;59542;37.950;-122.338;2023-10-31T03:05:06;101747.66;;;15.22;38.34
70009;BME280;59542;37.950;-122.338;2023-10-31T03:07:32;101748.09;;;15.19;38.70
70009;BME280;59542;37.950;-122.338;2023-10-31T03:09:59;101750.88;;;14.92;39.07
70009;BME280;59542;37.950;-122.338;2023-10-31T03:12:25;101753.25;;;14.62;39.79
70009;BME280;59542;37.950;-122.338;2023-10-31T03:14:51;101754.09;;;14.56;39.92
70009;BME280;59542;37.950;-122.338;2023-10-31T03:17:18;101753.06;;;14.57;39.55
70009;BME280;59542;37.950;-122.338;2023-10-31T03:19:44;101756.56;;;14.44;40.21
70009;BME280;59542;37.950;-122.338;2023-10-31T03:22:11;101758.41;;;14.77;39.59
70009;BME280;59542;37.950;-122.338;2023-10-31T03:24:37;101755.06;;;14.88;39.32
70009;BME280;59542;37.950;-122.338;2023-10-31T03:27:03;101755.03;;;14.95;39.21
70009;BME280;59542;37.950;-122.338;2023-10-31T03:29:29;101754.16;;;15.08;38.79
70009;BME280;59542;37.950;-122.338;2023-10-31T03:31:56;101764.56;;;14.97;39.12
70009;BME280;59542;37.950;-122.338;2023-10-31T03:34:22;101759.16;;;14.97;39.36
70009;BME280;59542;37.950;-122.338;2023-10-31T03:36:48;101771.59;;;15.05;39.45
70009;BME280;59542;37.950;-122.338;2023-10-31T03:39:14;101768.16;;;14.78;39.92
70009;BME280;59542;37.950;-122.338;2023-10-31T03:41:40;101767.97;;;14.60;40.50
70009;BME280;59542;37.950;-122.338;2023-10-31T03:44:08;101772.94;;;14.30;40.86
70009;BME280;59542;37.950;-122.338;2023-10-31T03:46:34;101771.69;;;14.19;41.84
70009;BME280;59542;37.950;-122.338;2023-10-31T03:49:00;101767.13;;;14.19;42.31
70009;BME280;59542;37.950;-122.338;2023-10-31T03:51:27;101773.78;;;14.17;42.83
70009;BME280;59542;37.950;-122.338;2023-10-31T03:53:53;101772.09;;;14.03;43.75
70009;BME280;59542;37.950;-122.338;2023-10-31T03:56:19;101772.09;;;13.89;44.25
70009;BME280;59542;37.950;-122.338;2023-10-31T03:58:45;101783.66;;;13.77;44.74
70009;BME280;59542;37.950;-122.338;2023-10-31T04:01:12;101775.41;;;13.78;44.57
70009;BME280;59542;37.950;-122.338;2023-10-31T04:03:38;101780.56;;;13.73;44.51
70009;BME280;59542;37.950;-122.338;2023-10-31T04:06:04;101776.00;;;13.67;44.85
70009;BME280;59542;37.950;-122.338;2023-10-31T04:08:30;101778.47;;;13.68;44.75
70009;BME280;59542;37.950;-122.338;2023-10-31T04:10:57;101772.88;;;13.57;44.81
70009;BME280;59542;37.950;-122.338;2023-10-31T04:13:23;101778.03;;;13.65;44.74
70009;BME280;59542;37.950;-122.338;2023-10-31T04:15:49;101785.09;;;13.66;44.23
70009;BME280;59542;37.950;-122.338;2023-10-31T04:18:15;101778.25;;;13.63;44.43
70009;BME280;59542;37.950;-122.338;2023-10-31T04:20:42;101788.41;;;13.68;43.42
70009;BME280;59542;37.950;-122.338;2023-10-31T04:23:09;101789.47;;;13.80;43.30
70009;BME280;59542;37.950;-122.338;2023-10-31T04:25:37;101783.69;;;13.90;42.96
70009;BME280;59542;37.950;-122.338;2023-10-31T04:28:03;101789.03;;;13.70;43.69
70009;BME280;59542;37.950;-122.338;2023-10-31T04:30:30;101790.13;;;13.89;43.87
70009;BME280;59542;37.950;-122.338;2023-10-31T04:32:56;101789.69;;;13.79;44.21
70009;BME280;59542;37.950;-122.338;2023-10-31T04:35:22;101789.00;;;13.57;44.67
70009;BME280;59542;37.950;-122.338;2023-10-31T04:37:49;101805.84;;;13.31;45.42
70009;BME280;59542;37.950;-122.338;2023-10-31T04:40:15;101802.25;;;13.10;46.06
70009;BME280;59542;37.950;-122.338;2023-10-31T04:42:41;101801.81;;;12.72;46.88
70009;BME280;59542;37.950;-122.338;2023-10-31T04:45:08;101799.06;;;13.00;46.57
70009;BME280;59542;37.950;-122.338;2023-10-31T04:47:35;101802.91;;;12.84;46.89
70009;BME280;59542;37.950;-122.338;2023-10-31T04:50:01;101796.31;;;12.59;47.41
70009;BME280;59542;37.950;-122.338;2023-10-31T04:52:27;101805.41;;;12.58;47.72
70009;BME280;59542;37.950;-122.338;2023-10-31T04:54:53;101803.31;;;12.53;47.88
70009;BME280;59542;37.950;-122.338;2023-10-31T04:57:20;101807.59;;;12.48;47.88
70009;BME280;59542;37.950;-122.338;2023-10-31T04:59:46;101806.81;;;12.54;47.50
70009;BME280;59542;37.950;-122.338;2023-10-31T05:02:12;101811.81;;;12.57;47.06
70009;BME280;59542;37.950;-122.338;2023-10-31T05:04:38;101811.94;;;12.49;47.13
70009;BME280;59542;37.950;-122.338;2023-10-31T05:07:07;101813.38;;;12.73;46.68
70009;BME280;59542;37.950;-122.338;2023-10-31T05:09:34;101815.50;;;12.28;47.54
70009;BME280;59542;37.950;-122.338;2023-10-31T05:12:01;101818.53;;;12.46;47.60
70009;BME280;59542;37.950;-122.338;2023-10-31T05:14:27;101810.19;;;12.34;47.90
70009;BME280;59542;37.950;-122.338;2023-10-31T05:16:53;101817.72;;;12.46;48.00
70009;BME280;59542;37.950;-122.338;2023-10-31T05:19:20;101818.34;;;12.48;48.25
70009;BME280;59542;37.950;-122.338;2023-10-31T05:21:46;101819.28;;;12.12;49.25
70009;BME280;59542;37.950;-122.338;2023-10-31T05:24:12;101819.22;;;11.84;50.16
70009;BME280;59542;37.950;-122.338;2023-10-31T05:26:40;101816.91;;;12.02;50.17
70009;BME280;59542;37.950;-122.338;2023-10-31T05:29:08;101816.91;;;12.02;50.51
70009;BME280;59542;37.950;-122.338;2023-10-31T05:31:35;101815.97;;;11.88;50.34
70009;BME280;59542;37.950;-122.338;2023-10-31T05:34:01;101807.53;;;11.77;50.54
70009;BME280;59542;37.950;-122.338;2023-10-31T05:36:29;101811.44;;;11.74;50.54
70009;BME280;59542;37.950;-122.338;2023-10-31T05:38:56;101813.41;;;12.02;50.33
70009;BME280;59542;37.950;-122.338;2023-10-31T05:41:22;101807.47;;;11.70;50.76
70009;BME280;59542;37.950;-122.338;2023-10-31T05:43:48;101814.03;;;11.82;50.80
70009;BME280;59542;37.950;-122.338;2023-10-31T05:46:15;101808.88;;;11.66;50.81
70009;BME280;59542;37.950;-122.338;2023-10-31T05:48:44;101813.56;;;11.79;50.65
70009;BME280;59542;37.950;-122.338;2023-10-31T05:51:15;101804.53;;;11.65;50.67
70009;BME280;59542;37.950;-122.338;2023-10-31T05:53:42;101798.91;;;11.60;50.72
70009;BME280;59542;37.950;-122.338;2023-10-31T05:56:09;101799.50;;;11.55;50.45
70009;BME280;59542;37.950;-122.338;2023-10-31T05:58:37;101806.88;;;11.53;51.10
70009;BME280;59542;37.950;-122.338;2023-10-31T06:01:03;101799.38;;;11.49;51.25
70009;BME280;59542;37.950;-122.338;2023-10-31T06:03:30;101807.75;;;11.39;51.36
70009;BME280;59542;37.950;-122.338;2023-10-31T06:05:56;101811.34;;;11.46;51.64
70009;BME280;59542;37.950;-122.338;2023-10-31T06:08:22;101822.16;;;11.38;51.18
70009;BME280;59542;37.950;-122.338;2023-10-31T06:10:50;101821.44;;;11.29;51.34
70009;BME280;59542;37.950;-122.338;2023-10-31T06:13:17;101825.06;;;11.22;51.49
70009;BME280;59542;37.950;-122.338;2023-10-31T06:15:43;101822.09;;;11.17;51.53
70009;BME280;59542;37.950;-122.338;2023-10-31T06:18:10;101829.19;;;11.09;51.80
70009;BME280;59542;37.950;-122.338;2023-10-31T06:20:36;101827.72;;;11.07;51.96
70009;BME280;59542;37.950;-122.338;2023-10-31T06:23:02;101831.34;;;10.99;51.81
70009;BME280;59542;37.950;-122.338;2023-10-31T06:25:31;101840.56;;;10.97;51.79
70009;BME280;59542;37.950;-122.338;2023-10-31T06:27:57;101834.38;;;11.11;51.62
70009;BME280;59542;37.950;-122.338;2023-10-31T06:30:24;101839.16;;;11.16;51.13
70009;BME280;59542;37.950;-122.338;2023-10-31T06:32:54;101837.91;;;11.12;51.16
70009;BME280;59542;37.950;-122.338;2023-10-31T06:35:20;101835.38;;;11.10;51.19
70009;BME280;59542;37.950;-122.338;2023-10-31T06:37:46;101834.91;;;11.21;50.89
70009;BME280;59542;37.950;-122.338;2023-10-31T06:40:13;101841.41;;;11.12;50.95
70009;BME280;59542;37.950;-122.338;2023-10-31T06:42:39;101836.88;;;10.83;51.51
70009;BME280;59542;37.950;-122.338;2023-10-31T06:45:06;101828.19;;;10.96;51.66
70009;BME280;59542;37.950;-122.338;2023-10-31T06:47:33;101828.28;;;10.73;52.09
70009;BME280;59542;37.950;-122.338;2023-10-31T06:49:59;101835.41;;;10.43;52.93
70009;BME280;59542;37.950;-122.338;2023-10-31T06:52:25;101837.13;;;10.36;53.11
70009;BME280;59542;37.950;-122.338;2023-10-31T06:54:52;101837.84;;;10.29;53.33
70009;BME280;59542;37.950;-122.338;2023-10-31T06:57:18;101836.13;;;10.37;53.73
70009;BME280;59542;37.950;-122.338;2023-10-31T06:59:44;101834.47;;;10.36;53.72
70009;BME280;59542;37.950;-122.338;2023-10-31T07:02:11;101838.50;;;10.31;54.14
70009;BME280;59542;37.950;-122.338;2023-10-31T07:04:38;101841.13;;;10.17;53.97
70009;BME280;59542;37.950;-122.338;2023-10-31T07:07:04;101839.31;;;10.09;54.46
70009;BME280;59542;37.950;-122.338;2023-10-31T07:09:30;101842.34;;;10.06;54.39
70009;BME280;59542;37.950;-122.338;2023-10-31T07:11:56;101844.34;;;10.04;54.37
70009;BME280;59542;37.950;-122.338;2023-10-31T07:14:23;101843.06;;;10.00;54.21
70009;BME280;59542;37.950;-122.338;2023-10-31T07:16:49;101850.91;;;10.01;53.92
70009;BME280;59542;37.950;-122.338;2023-10-31T07:19:15;101844.78;;;9.93;54.43
70009;BME280;59542;37.950;-122.338;2023-10-31T07:21:42;101853.69;;;9.85;53.79
70009;BME280;59542;37.950;-122.338;2023-10-31T07:24:08;101852.16;;;9.91;52.50
70009;BME280;59542;37.950;-122.338;2023-10-31T07:26:35;101851.72;;;9.79;51.69
70009;BME280;59542;37.950;-122.338;2023-10-31T07:29:01;101839.53;;;9.76;51.15
70009;BME280;59542;37.950;-122.338;2023-10-31T07:31:28;101841.44;;;9.91;50.63
70009;BME280;59542;37.950;-122.338;2023-10-31T07:33:54;101853.81;;;9.92;50.71
70009;BME280;59542;37.950;-122.338;2023-10-31T07:36:22;101850.81;;;9.87;51.00
70009;BME280;59542;37.950;-122.338;2023-10-31T07:38:48;101843.00;;;9.85;51.53
70009;BME280;59542;37.950;-122.338;2023-10-31T07:41:14;101854.13;;;9.97;51.59
70009;BME280;59542;37.950;-122.338;2023-10-31T07:43:40;101856.38;;;9.77;52.07
70009;BME280;59542;37.950;-122.338;2023-10-31T07:46:07;101850.78;;;9.64;52.74
70009;BME280;59542;37.950;-122.338;2023-10-31T07:48:33;101844.13;;;9.60;53.33
70009;BME280;59542;37.950;-122.338;2023-10-31T07:50:59;101852.00;;;9.61;53.81
70009;BME280;59542;37.950;-122.338;2023-10-31T07:53:25;101850.66;;;9.57;53.84
70009;BME280;59542;37.950;-122.338;2023-10-31T07:55:51;101847.59;;;9.68;53.88
70009;BME280;59542;37.950;-122.338;2023-10-31T07:58:18;101843.28;;;9.59;53.64
70009;BME280;59542;37.950;-122.338;2023-10-31T08:00:44;101842.34;;;9.52;53.76
70009;BME280;59542;37.950;-122.338;2023-10-31T08:03:10;101842.91;;;9.39;54.06
70009;BME280;59542;37.950;-122.338;2023-10-31T08:05:36;101846.97;;;9.58;54.30
70009;BME280;59542;37.950;-122.338;2023-10-31T08:08:03;101850.22;;;9.45;54.54
70009;BME280;59542;37.950;-122.338;2023-10-31T08:10:29;101849.59;;;9.27;54.89
70009;BME280;59542;37.950;-122.338;2023-10-31T08:12:55;101850.44;;;9.36;55.53
70009;BME280;59542;37.950;-122.338;2023-10-31T08:15:22;101846.28;;;9.25;55.38
70009;BME280;59542;37.950;-122.338;2023-10-31T08:17:48;101840.81;;;9.18;55.52
70009;BME280;59542;37.950;-122.338;2023-10-31T08:20:14;101849.47;;;9.29;55.26
70009;BME280;59542;37.950;-122.338;2023-10-31T08:22:41;101846.47;;;9.23;55.44
70009;BME280;59542;37.950;-122.338;2023-10-31T08:25:10;101846.69;;;9.06;55.61
70009;BME280;59542;37.950;-122.338;2023-10-31T08:27:36;101845.53;;;9.00;55.58
70009;BME280;59542;37.950;-122.338;2023-10-31T08:30:03;101843.53;;;9.02;56.01
70009;BME280;59542;37.950;-122.338;2023-10-31T08:32:29;101839.59;;;9.29;55.29
70009;BME280;59542;37.950;-122.338;2023-10-31T08:34:55;101841.97;;;9.16;55.54
70009;BME280;59542;37.950;-122.338;2023-10-31T08:37:23;101837.63;;;9.23;55.52
70009;BME280;59542;37.950;-122.338;2023-10-31T08:39:50;101835.50;;;9.02;56.02
70009;BME280;59542;37.950;-122.338;2023-10-31T08:42:16;101838.47;;;9.15;55.61
70009;BME280;59542;37.950;-122.338;2023-10-31T08:44:42;101836.06;;;9.37;54.83
70009;BME280;59542;37.950;-122.338;2023-10-31T08:47:08;101840.63;;;9.28;54.81
70009;BME280;59542;37.950;-122.338;2023-10-31T08:49:35;101831.28;;;9.16;54.91
70009;BME280;59542;37.950;-122.338;2023-10-31T08:52:01;101834.66;;;9.10;55.20
70009;BME280;59542;37.950;-122.338;2023-10-31T08:54:29;101841.50;;;9.04;55.31
70009;BME280;59542;37.950;-122.338;2023-10-31T08:56:56;101832.69;;;8.95;55.49
70009;BME280;59542;37.950;-122.338;2023-10-31T08:59:22;101834.22;;;8.82;55.67
70009;BME280;59542;37.950;-122.338;2023-10-31T09:01:48;101841.91;;;8.77;55.89
70009;BME280;59542;37.950;-122.338;2023-10-31T09:04:15;101834.91;;;8.76;56.04
70009;BME280;59542;37.950;-122.338;2023-10-31T09:06:41;101838.44;;;8.68;56.18
70009;BME280;59542;37.950;-122.338;2023-10-31T09:09:07;101833.91;;;8.60;56.56
70009;BME280;59542;37.950;-122.338;2023-10-31T09:11:36;101834.50;;;9.03;56.60
70009;BME280;59542;37.950;-122.338;2023-10-31T09:14:02;101830.69;;;9.06;57.24
70009;BME280;59542;37.950;-122.338;2023-10-31T09:16:28;101831.50;;;9.06;56.92
70009;BME280;59542;37.950;-122.338;2023-10-31T09:18:54;101835.78;;;9.15;56.47
70009;BME280;59542;37.950;-122.338;2023-10-31T09:21:21;101841.81;;;9.09;56.31
70009;BME280;59542;37.950;-122.338;2023-10-31T09:23:47;101842.91;;;8.84;56.70
70009;BME280;59542;37.950;-122.338;2023-10-31T09:26:13;101833.91;;;8.77;56.56
70009;BME280;59542;37.950;-122.338;2023-10-31T09:28:40;101846.59;;;8.75;57.08
70009;BME280;59542;37.950;-122.338;2023-10-31T09:31:16;101837.75;;;8.74;57.23
70009;BME280;59542;37.950;-122.338;2023-10-31T09:33:44;101836.78;;;8.67;57.31
70009;BME280;59542;37.950;-122.338;2023-10-31T09:36:10;101838.91;;;8.80;57.23
70009;BME280;59542;37.950;-122.338;2023-10-31T09:38:37;101843.88;;;8.91;57.09
70009;BME280;59542;37.950;-122.338;2023-10-31T09:41:03;101841.22;;;8.83;57.30
70009;BME280;59542;37.950;-122.338;2023-10-31T09:43:30;101838.91;;;8.80;57.00
70009;BME280;59542;37.950;-122.338;2023-10-31T09:45:57;101845.09;;;8.64;57.35
70009;BME280;59542;37.950;-122.338;2023-10-31T09:48:26;101844.09;;;8.49;58.40
70009;BME280;59542;37.950;-122.338;2023-10-31T09:50:53;101839.63;;;8.41;59.29
70009;BME280;59542;37.950;-122.338;2023-10-31T09:53:20;101839.44;;;8.34;60.28
70009;BME280;59542;37.950;-122.338;2023-10-31T09:55:49;101845.44;;;8.36;60.66
70009;BME280;59542;37.950;-122.338;2023-10-31T09:58:16;101838.59;;;8.42;61.03
70009;BME280;59542;37.950;-122.338;2023-10-31T10:00:42;101844.63;;;8.52;61.71
70009;BME280;59542;37.950;-122.338;2023-10-31T10:03:09;101841.78;;;8.54;62.91
70009;BME280;59542;37.950;-122.338;2023-10-31T10:05:36;101839.13;;;8.45;64.20
70009;BME280;59542;37.950;-122.338;2023-10-31T10:08:07;101830.56;;;8.75;63.40
70009;BME280;59542;37.950;-122.338;2023-10-31T10:10:36;101831.06;;;8.70;62.52
70009;BME280;59542;37.950;-122.338;2023-10-31T10:13:02;101833.34;;;8.97;61.28
70009;BME280;59542;37.950;-122.338;2023-10-31T10:15:29;101833.53;;;8.88;61.15
70009;BME280;59542;37.950;-122.338;2023-10-31T10:17:55;101827.31;;;9.04;60.41
70009;BME280;59542;37.950;-122.338;2023-10-31T10:20:21;101833.53;;;8.96;59.67
70009;BME280;59542;37.950;-122.338;2023-10-31T10:22:48;101829.09;;;8.72;59.67
70009;BME280;59542;37.950;-122.338;2023-10-31T10:25:16;101828.91;;;8.65;59.39
70009;BME280;59542;37.950;-122.338;2023-10-31T10:27:43;101829.56;;;8.76;58.46
70009;BME280;59542;37.950;-122.338;2023-10-31T10:30:13;101821.94;;;8.48;58.39
70009;BME280;59542;37.950;-122.338;2023-10-31T10:32:39;101820.25;;;8.63;57.44
70009;BME280;59542;37.950;-122.338;2023-10-31T10:35:07;101818.09;;;8.42;57.94
70009;BME280;59542;37.950;-122.338;2023-10-31T10:37:37;101818.25;;;8.00;59.36
70009;BME280;59542;37.950;-122.338;2023-10-31T10:40:06;101819.06;;;8.01;59.67
70009;BME280;59542;37.950;-122.338;2023-10-31T10:42:47;101807.56;;;8.00;59.74
70009;BME280;59542;37.950;-122.338;2023-10-31T10:45:16;101814.91;;;8.06;60.06
70009;BME280;59542;37.950;-122.338;2023-10-31T10:47:47;101809.22;;;8.09;59.67
70009;BME280;59542;37.950;-122.338;2023-10-31T10:50:14;101807.41;;;8.18;59.38
70009;BME280;59542;37.950;-122.338;2023-10-31T10:55:25;101812.41;;;8.13;59.94
70009;BME280;59542;37.950;-122.338;2023-10-31T10:58:00;101801.22;;;7.93;61.11
70009;BME280;59542;37.950;-122.338;2023-10-31T11:00:26;101808.84;;;7.55;62.45
70009;BME280;59542;37.950;-122.338;2023-10-31T11:02:56;101812.81;;;7.51;62.78
70009;BME280;59542;37.950;-122.338;2023-10-31T11:05:24;101806.31;;;7.54;62.89
70009;BME280;59542;37.950;-122.338;2023-10-31T11:07:52;101811.84;;;7.68;62.31
70009;BME280;59542;37.950;-122.338;2023-10-31T11:10:19;101808.78;;;7.47;62.75
70009;BME280;59542;37.950;-122.338;2023-10-31T11:12:47;101806.47;;;7.44;62.86
70009;BME280;59542;37.950;-122.338;2023-10-31T11:15:16;101809.16;;;7.52;62.66
70009;BME280;59542;37.950;-122.338;2023-10-31T11:17:45;101805.75;;;7.34;62.72
70009;BME280;59542;37.950;-122.338;2023-10-31T11:20:14;101803.69;;;7.20;63.04
70009;BME280;59542;37.950;-122.338;2023-10-31T11:22:45;101807.94;;;7.38;62.75
70009;BME280;59542;37.950;-122.338;2023-10-31T11:25:22;101799.38;;;7.19;63.19
70009;BME280;59542;37.950;-122.338;2023-10-31T11:27:53;101804.88;;;7.25;63.03
70009;BME280;59542;37.950;-122.338;2023-10-31T11:32:55;101805.72;;;7.26;62.65
70009;BME280;59542;37.950;-122.338;2023-10-31T11:35:23;101810.78;;;7.45;62.55
70009;BME280;59542;37.950;-122.338;2023-10-31T11:38:03;101814.09;;;7.39;62.62
70009;BME280;59542;37.950;-122.338;2023-10-31T11:40:30;101811.78;;;7.44;61.94
70009;BME280;59542;37.950;-122.338;2023-10-31T11:42:58;101815.06;;;7.30;62.39
70009;BME280;59542;37.950;-122.338;2023-10-31T11:45:40;101811.63;;;7.54;61.48
70009;BME280;59542;37.950;-122.338;2023-10-31T11:48:08;101810.97;;;7.52;61.53
70009;BME280;59542;37.950;-122.338;2023-10-31T11:50:37;101818.31;;;7.50;61.24
70009;BME280;59542;37.950;-122.338;2023-10-31T11:53:08;101818.44;;;7.48;61.56
70009;BME280;59542;37.950;-122.338;2023-10-31T11:55:42;101819.81;;;7.52;61.44
70009;BME280;59542;37.950;-122.338;2023-10-31T11:58:23;101818.00;;;7.77;60.46
70009;BME280;59542;37.950;-122.338;2023-10-31T12:01:02;101824.03;;;7.79;60.19
70009;BME280;59542;37.950;-122.338;2023-10-31T12:03:40;101816.00;;;7.71;60.42
70009;BME280;59542;37.950;-122.338;2023-10-31T12:06:07;101820.53;;;7.87;59.94
70009;BME280;59542;37.950;-122.338;2023-10-31T12:08:37;101821.38;;;7.79;59.99
70009;BME280;59542;37.950;-122.338;2023-10-31T12:11:17;101818.19;;;7.67;60.06
70009;BME280;59542;37.950;-122.338;2023-10-31T12:13:57;101816.19;;;7.70;60.38
70009;BME280;59542;37.950;-122.338;2023-10-31T12:16:33;101813.53;;;7.78;60.12
70009;BME280;59542;37.950;-122.338;2023-10-31T12:19:01;101819.53;;;7.88;60.17
70009;BME280;59542;37.950;-122.338;2023-10-31T12:21:43;101810.84;;;7.70;60.92
70009;BME280;59542;37.950;-122.338;2023-10-31T12:24:14;101813.00;;;7.58;61.70
70009;BME280;59542;37.950;-122.338;2023-10-31T12:26:41;101814.16;;;7.63;61.97
70009;BME280;59542;37.950;-122.338;2023-10-31T12:31:34;101804.09;;;7.33;63.17
70009;BME280;59542;37.950;-122.338;2023-10-31T12:34:06;101806.31;;;7.54;62.42